LiveATC.Net - Listen to live air traffic control over the Internet!


ICAO: KGPM  IATA: GPM   Airport: Grand Prairie Municipal Airport
City: Grand Prairie   State/Province: Texas
Country: United States   Continent: North America
KGPM METAR Weather: KGPM 172150Z 08006KT 10SM SKC 36/17 A2996
KGPM Flight Activity (FlightAware)
KGPM Airport Info   (iFlightPlanner)
KGPM VFR Sectional Chart   (iFlightPlanner) 
KGPM IFR Low Chart   (iFlightPlanner) 

KGPM Tower
Feed Status: UP   Listeners: 0
Listen in your browser - HTML5 player (in browser, HTML5)
Click here to listen with your own player (launches your MP3 player)
Archive Access: KGPM Tower
FacilityFrequency
Grand Prairie Tower128.550

NOTICE

Unauthorized use prohibited. See LiveATC.net Terms of Service


Airport/ARTCC Code
Frequency Search
(e.g., 124.400, 128.75)
Site-wide search
 


Browse Feeds
Top 50 Feeds
HF Oceanic Feeds
Coverage Map
Bad Weather Areas

LiveATC FAQ
Offer LiveATC feed
Contact LiveATC.net
Press Inquiries

LiveATC on iPhone
LiveATC on Android

Windows Phone
Windows 8/10

LiveATC Mobile
(Mobile browser)

ATC Audio Archives
Interesting Recordings

LiveATC Forums


Home Page
About LiveATC.net
Make a Donation
Terms of Use
Privacy Policy

Canadian Air Freqs

AIRMETs/SIGMETs

FAA Airport Status
NAS Status
Arrival Demand


Server Software By:
Icecast.org
Liquidsoap